Time,TemperatureF,DewpointF,PressureIn,WindDirection,WindDirectionDegrees,WindSpeedMPH,WindSpeedGustMPH,Humidity,HourlyPrecipIn,Conditions,Clouds,dailyrainin,SolarRadiationWatts/m^2,SoftwareType,DateUTC
2013-02-22 00:01:00,38.0,33.0,-100.00,SW,215,3.0,7.0,83,0.00,,,0.00,0.000000,,2013-02-22 08:01:00,
2013-02-22 00:32:00,38.0,33.0,-100.00,SW,232,4.0,7.0,82,0.00,,,0.00,0.000000,,2013-02-22 08:32:00,
2013-02-22 00:42:00,38.0,33.0,-100.00,SW,232,4.0,7.0,82,0.00,,,0.00,0.000000,,2013-02-22 08:42:00,
2013-02-22 00:52:00,38.0,33.0,-100.00,SW,232,4.0,7.0,82,0.00,,,0.00,0.000000,,2013-02-22 08:52:00,
2013-02-22 01:03:00,38.0,33.0,-100.00,SW,232,4.0,7.0,82,0.00,,,0.00,0.000000,,2013-02-22 09:03:00,
2013-02-22 01:22:00,37.0,32.0,-100.00,WSW,238,4.0,7.0,81,0.00,,,0.00,0.000000,,2013-02-22 09:22:00,
2013-02-22 01:32:00,37.0,32.0,-100.00,WSW,238,4.0,7.0,81,0.00,,,0.00,0.000000,,2013-02-22 09:32:00,
2013-02-22 01:42:00,37.0,32.0,-100.00,WSW,238,4.0,7.0,81,0.00,,,0.00,0.000000,,2013-02-22 09:42:00,
2013-02-22 01:52:00,37.0,32.0,-100.00,WSW,238,4.0,7.0,81,0.00,,,0.00,0.000000,,2013-02-22 09:52:00,
2013-02-22 02:01:00,37.0,32.0,-100.00,WSW,238,4.0,7.0,81,0.00,,,0.00,0.000000,,2013-02-22 10:01:00,
2013-02-22 02:32:00,37.0,32.0,-100.00,SW,225,3.0,8.0,81,0.00,,,0.00,0.000000,,2013-02-22 10:32:00,
2013-02-22 02:42:00,37.0,32.0,-100.00,SW,225,3.0,8.0,81,0.00,,,0.00,0.000000,,2013-02-22 10:42:00,
2013-02-22 02:52:00,37.0,32.0,-100.00,SW,225,3.0,8.0,81,0.00,,,0.00,0.000000,,2013-02-22 10:52:00,
2013-02-22 03:01:00,37.0,32.0,-100.00,SW,225,3.0,8.0,81,0.00,,,0.00,0.000000,,2013-02-22 11:01:00,
2013-02-22 03:22:00,36.0,30.0,-100.00,WSW,244,4.0,8.0,80,0.00,,,0.00,0.000000,,2013-02-22 11:22:00,
2013-02-22 03:32:00,36.0,30.0,-100.00,WSW,244,4.0,8.0,80,0.00,,,0.00,0.000000,,2013-02-22 11:32:00,
2013-02-22 03:42:00,36.0,30.0,-100.00,WSW,244,4.0,8.0,80,0.00,,,0.00,0.000000,,2013-02-22 11:42:00,
2013-02-22 03:52:00,36.0,30.0,-100.00,WSW,244,4.0,8.0,80,0.00,,,0.00,0.000000,,2013-02-22 11:52:00,
2013-02-22 04:01:00,36.0,30.0,-100.00,WSW,244,4.0,8.0,80,0.00,,,0.00,0.000000,,2013-02-22 12:01:00,
2013-02-22 04:32:00,36.0,30.0,-100.00,SSW,206,3.0,7.0,79,0.00,,,0.00,0.000000,,2013-02-22 12:32:00,
2013-02-22 04:42:00,36.0,30.0,-100.00,SSW,206,3.0,7.0,79,0.00,,,0.00,0.000000,,2013-02-22 12:42:00,
2013-02-22 04:52:00,36.0,30.0,-100.00,SSW,206,3.0,7.0,79,0.00,,,0.00,0.000000,,2013-02-22 12:52:00,
2013-02-22 05:01:00,36.0,30.0,-100.00,SSW,206,3.0,7.0,79,0.00,,,0.00,0.000000,,2013-02-22 13:01:00,
2013-02-22 05:32:00,35.0,29.0,-100.00,SSW,200,3.0,8.0,78,0.00,,,0.00,0.000000,,2013-02-22 13:32:00,
2013-02-22 05:42:00,35.0,29.0,-100.00,SSW,200,3.0,8.0,78,0.00,,,0.00,0.000000,,2013-02-22 13:42:00,
2013-02-22 05:52:00,35.0,29.0,-100.00,SSW,200,3.0,8.0,78,0.00,,,0.00,0.000000,,2013-02-22 13:52:00,
2013-02-22 06:01:00,35.0,29.0,-100.00,SSW,200,3.0,8.0,78,0.00,,,0.00,0.000000,,2013-02-22 14:01:00,
2013-02-22 06:32:00,35.0,28.0,-100.00,SW,220,4.0,9.0,76,0.00,,,0.00,0.000000,,2013-02-22 14:32:00,
2013-02-22 06:42:00,35.0,28.0,-100.00,SW,220,4.0,9.0,76,0.00,,,0.00,0.000000,,2013-02-22 14:42:00,
2013-02-22 06:52:00,35.0,28.0,-100.00,SW,220,4.0,9.0,76,0.00,,,0.00,0.000000,,2013-02-22 14:52:00,
2013-02-22 07:01:00,35.0,28.0,-100.00,SW,220,4.0,9.0,76,0.00,,,0.00,0.000000,,2013-02-22 15:01:00,
2013-02-22 07:32:00,35.0,28.0,-100.00,SSW,213,3.0,9.0,75,0.00,,,0.00,3.000000,,2013-02-22 15:32:00,
2013-02-22 07:42:00,35.0,28.0,-100.00,SSW,213,3.0,9.0,75,0.00,,,0.00,3.000000,,2013-02-22 15:42:00,
2013-02-22 07:52:00,35.0,28.0,-100.00,SSW,213,3.0,9.0,75,0.00,,,0.00,3.000000,,2013-02-22 15:52:00,
2013-02-22 08:01:00,35.0,28.0,-100.00,SSW,213,3.0,9.0,75,0.00,,,0.00,3.000000,,2013-02-22 16:01:00,
2013-02-22 08:32:00,39.0,28.0,-100.00,SW,231,5.0,10.0,65,0.00,,,0.00,103.000000,,2013-02-22 16:32:00,
2013-02-22 08:42:00,39.0,28.0,-100.00,SW,231,5.0,10.0,65,0.00,,,0.00,103.000000,,2013-02-22 16:42:00,
2013-02-22 08:52:00,39.0,28.0,-100.00,SW,231,5.0,10.0,65,0.00,,,0.00,103.000000,,2013-02-22 16:52:00,
2013-02-22 09:01:00,39.0,28.0,-100.00,SW,231,5.0,10.0,65,0.00,,,0.00,103.000000,,2013-02-22 17:01:00,
2013-02-22 09:32:00,46.0,30.0,-100.00,SSW,194,2.0,6.0,54,0.00,,,0.00,311.000000,,2013-02-22 17:32:00,
2013-02-22 09:42:00,46.0,30.0,-100.00,SSW,194,2.0,6.0,54,0.00,,,0.00,311.000000,,2013-02-22 17:42:00,
2013-02-22 09:52:00,46.0,30.0,-100.00,SSW,194,2.0,6.0,54,0.00,,,0.00,311.000000,,2013-02-22 17:52:00,
2013-02-22 10:01:00,46.0,30.0,-100.00,SSW,194,2.0,6.0,54,0.00,,,0.00,311.000000,,2013-02-22 18:01:00,
2013-02-22 10:23:00,55.0,32.0,-100.00,SE,135,1.0,8.0,42,0.00,,,0.00,493.000000,,2013-02-22 18:23:00,
2013-02-22 10:32:00,55.0,32.0,-100.00,SE,135,1.0,8.0,42,0.00,,,0.00,493.000000,,2013-02-22 18:32:00,
2013-02-22 10:42:00,55.0,32.0,-100.00,SE,135,1.0,8.0,42,0.00,,,0.00,493.000000,,2013-02-22 18:42:00,
2013-02-22 10:52:00,55.0,32.0,-100.00,SE,135,1.0,8.0,42,0.00,,,0.00,493.000000,,2013-02-22 18:52:00,
2013-02-22 11:01:00,55.0,32.0,-100.00,SE,135,1.0,8.0,42,0.00,,,0.00,493.000000,,2013-02-22 19:01:00,
2013-02-22 11:31:00,59.0,31.0,-100.00,East,84,8.0,13.0,34,0.00,,,0.00,632.000000,,2013-02-22 19:31:00,
2013-02-22 11:42:00,59.0,31.0,-100.00,East,84,8.0,13.0,34,0.00,,,0.00,632.000000,,2013-02-22 19:42:00,
2013-02-22 11:52:00,59.0,31.0,-100.00,East,84,8.0,13.0,34,0.00,,,0.00,632.000000,,2013-02-22 19:52:00,
2013-02-22 12:01:00,59.0,31.0,-100.00,East,84,8.0,13.0,34,0.00,,,0.00,632.000000,,2013-02-22 20:01:00,
2013-02-22 12:32:00,63.0,28.0,-100.00,East,88,6.0,12.0,26,0.00,,,0.00,664.000000,,2013-02-22 20:32:00,
2013-02-22 12:42:00,63.0,28.0,-100.00,East,88,6.0,12.0,26,0.00,,,0.00,664.000000,,2013-02-22 20:42:00,
2013-02-22 12:52:00,63.0,28.0,-100.00,East,88,6.0,12.0,26,0.00,,,0.00,664.000000,,2013-02-22 20:52:00,
2013-02-22 13:01:00,63.0,28.0,-100.00,East,88,6.0,12.0,26,0.00,,,0.00,664.000000,,2013-02-22 21:01:00,
2013-02-22 13:32:00,66.0,30.0,-100.00,NNE,22,3.0,14.0,26,0.00,,,0.00,730.000000,,2013-02-22 21:32:00,
2013-02-22 13:42:00,66.0,30.0,-100.00,NNE,22,3.0,14.0,26,0.00,,,0.00,730.000000,,2013-02-22 21:42:00,
2013-02-22 13:52:00,66.0,30.0,-100.00,NNE,22,3.0,14.0,26,0.00,,,0.00,730.000000,,2013-02-22 21:52:00,
2013-02-22 14:01:00,66.0,30.0,-100.00,NNE,22,3.0,14.0,26,0.00,,,0.00,730.000000,,2013-02-22 22:01:00,
2013-02-22 14:32:00,67.0,29.0,-100.00,NNE,29,5.0,14.0,24,0.00,,,0.00,689.000000,,2013-02-22 22:32:00,
2013-02-22 14:42:00,67.0,29.0,-100.00,NNE,29,5.0,14.0,24,0.00,,,0.00,689.000000,,2013-02-22 22:42:00,
2013-02-22 14:52:00,67.0,29.0,-100.00,NNE,29,5.0,14.0,24,0.00,,,0.00,689.000000,,2013-02-22 22:52:00,
2013-02-22 15:01:00,67.0,29.0,-100.00,NNE,29,5.0,14.0,24,0.00,,,0.00,689.000000,,2013-02-22 23:01:00,
2013-02-22 15:32:00,68.0,29.0,-100.00,WNW,301,3.0,15.0,23,0.00,,,0.00,587.000000,,2013-02-22 23:32:00,
2013-02-22 15:42:00,68.0,29.0,-100.00,WNW,301,3.0,15.0,23,0.00,,,0.00,587.000000,,2013-02-22 23:42:00,
2013-02-22 15:52:00,68.0,29.0,-100.00,WNW,301,3.0,15.0,23,0.00,,,0.00,587.000000,,2013-02-22 23:52:00,
2013-02-22 16:01:00,68.0,29.0,-100.00,WNW,301,3.0,15.0,23,0.00,,,0.00,587.000000,,2013-02-23 00:01:00,
2013-02-22 16:32:00,67.0,31.0,-100.00,ENE,63,3.0,12.0,26,-99.99,,,0.00,427.000000,,2013-02-23 00:32:00,
2013-02-22 16:42:00,67.0,31.0,-100.00,ENE,63,3.0,12.0,26,-99.99,,,0.00,427.000000,,2013-02-23 00:42:00,
2013-02-22 16:52:00,67.0,31.0,-100.00,ENE,63,3.0,12.0,26,-99.99,,,0.00,427.000000,,2013-02-23 00:52:00,
2013-02-22 17:01:00,67.0,31.0,-100.00,ENE,63,3.0,12.0,26,-99.99,,,0.00,427.000000,,2013-02-23 01:01:00,
2013-02-22 17:32:00,62.0,29.0,-100.00,ENE,71,5.0,10.0,28,-99.99,,,0.00,197.000000,,2013-02-23 01:32:00,
2013-02-22 17:42:00,62.0,29.0,-100.00,ENE,71,5.0,10.0,28,-99.99,,,0.00,197.000000,,2013-02-23 01:42:00,
2013-02-22 17:52:00,62.0,29.0,-100.00,ENE,71,5.0,10.0,28,-99.99,,,0.00,197.000000,,2013-02-23 01:52:00,
2013-02-22 18:01:00,62.0,29.0,-100.00,ENE,71,5.0,10.0,28,-99.99,,,0.00,197.000000,,2013-02-23 02:01:00,
2013-02-22 18:32:00,57.0,30.0,-100.00,East,87,5.0,12.0,36,0.00,,,0.00,14.000000,,2013-02-23 02:32:00,
2013-02-22 18:42:00,57.0,30.0,-100.00,East,87,5.0,12.0,36,0.00,,,0.00,14.000000,,2013-02-23 02:42:00,
2013-02-22 18:52:00,57.0,30.0,-100.00,East,87,5.0,12.0,36,0.00,,,0.00,14.000000,,2013-02-23 02:52:00,
2013-02-22 19:01:00,57.0,30.0,-100.00,East,87,5.0,12.0,36,0.00,,,0.00,14.000000,,2013-02-23 03:01:00,
2013-02-22 19:32:00,50.0,34.0,-100.00,SW,236,2.0,5.0,54,0.00,,,0.00,0.000000,,2013-02-23 03:32:00,
2013-02-22 19:42:00,50.0,34.0,-100.00,SW,236,2.0,5.0,54,0.00,,,0.00,0.000000,,2013-02-23 03:42:00,
2013-02-22 19:52:00,50.0,34.0,-100.00,SW,236,2.0,5.0,54,0.00,,,0.00,0.000000,,2013-02-23 03:52:00,
2013-02-22 20:01:00,50.0,34.0,-100.00,SW,236,2.0,5.0,54,0.00,,,0.00,0.000000,,2013-02-23 04:01:00,
2013-02-22 20:32:00,45.0,35.0,-100.00,SW,233,2.0,3.0,67,0.00,,,0.00,0.000000,,2013-02-23 04:32:00,
2013-02-22 20:42:00,45.0,35.0,-100.00,SW,233,2.0,3.0,67,0.00,,,0.00,0.000000,,2013-02-23 04:42:00,
2013-02-22 20:52:00,45.0,35.0,-100.00,SW,233,2.0,3.0,67,0.00,,,0.00,0.000000,,2013-02-23 04:52:00,
2013-02-22 21:01:00,45.0,35.0,-100.00,SW,233,2.0,3.0,67,0.00,,,0.00,0.000000,,2013-02-23 05:01:00,
2013-02-22 21:23:00,44.0,35.0,-100.00,SW,220,3.0,6.0,70,0.00,,,0.00,0.000000,,2013-02-23 05:23:00,
2013-02-22 21:33:00,44.0,35.0,-100.00,SW,220,3.0,6.0,70,0.00,,,0.00,0.000000,,2013-02-23 05:33:00,
2013-02-22 21:42:00,44.0,35.0,-100.00,SW,220,3.0,6.0,70,0.00,,,0.00,0.000000,,2013-02-23 05:42:00,
2013-02-22 21:52:00,44.0,35.0,-100.00,SW,220,3.0,6.0,70,0.00,,,0.00,0.000000,,2013-02-23 05:52:00,
2013-02-22 22:01:00,44.0,35.0,-100.00,SW,220,3.0,6.0,70,0.00,,,0.00,0.000000,,2013-02-23 06:01:00,
2013-02-22 22:32:00,43.0,34.0,-100.00,SW,218,3.0,6.0,71,0.00,,,0.00,0.000000,,2013-02-23 06:32:00,
2013-02-22 22:42:00,43.0,34.0,-100.00,SW,218,3.0,6.0,71,0.00,,,0.00,0.000000,,2013-02-23 06:42:00,
2013-02-22 22:52:00,43.0,34.0,-100.00,SW,218,3.0,6.0,71,0.00,,,0.00,0.000000,,2013-02-23 06:52:00,
2013-02-22 23:01:00,43.0,34.0,-100.00,SW,218,3.0,6.0,71,0.00,,,0.00,0.000000,,2013-02-23 07:01:00,
2013-02-22 23:32:00,42.0,34.0,-100.00,SW,215,2.0,6.0,73,0.00,,,0.00,0.000000,,2013-02-23 07:32:00,
2013-02-22 23:42:00,42.0,34.0,-100.00,SW,215,2.0,6.0,73,0.00,,,0.00,0.000000,,2013-02-23 07:42:00,
2013-02-22 23:52:00,42.0,34.0,-100.00,SW,215,2.0,6.0,73,0.00,,,0.00,0.000000,,2013-02-23 07:52:00,